Time;durP1;ratioP1;P1;durP2;ratioP2;P2;SDS_P1;SDS_P2;PMS_P1;PMS_P2;Temp;Humidity;BMP_temperature;BMP_pressure;BME280_temperature;BME280_humidity;BME280_pressure;Samples;Min_cycle;Max_cycle;Signal;HPM_P1;HPM_P2
2020/12/15 00:01:22;;;;;;;12.05;1.83;;;;;;;10.78;100.00;100208.66;5094210;28;20044;-67
2020/12/15 00:03:49;;;;;;;15.23;1.70;;;;;;;10.76;100.00;100197.13;5094140;28;20493;-68
2020/12/15 00:06:15;;;;;;;21.08;2.10;;;;;;;10.74;100.00;100204.75;5094130;28;20056;-69
2020/12/15 00:08:40;;;;;;;11.93;1.80;;;;;;;10.74;100.00;100199.31;5094012;28;20039;-67
2020/12/15 00:11:06;;;;;;;27.23;3.22;;;;;;;10.73;100.00;100214.88;5093959;28;20093;-67
2020/12/15 00:13:31;;;;;;;15.80;2.60;;;;;;;10.73;100.00;100205.84;5093924;28;20036;-68
2020/12/15 00:15:57;;;;;;;26.55;3.13;;;;;;;10.73;100.00;100208.59;5094067;28;20097;-68
2020/12/15 00:18:22;;;;;;;16.92;2.30;;;;;;;10.72;100.00;100215.13;5093839;28;20066;-69
2020/12/15 00:20:48;;;;;;;19.73;2.83;;;;;;;10.73;100.00;100214.03;5093917;28;20032;-68
2020/12/15 00:23:14;;;;;;;21.98;2.35;;;;;;;10.74;100.00;100215.69;5093634;28;20055;-70
2020/12/15 00:25:40;;;;;;;17.15;2.72;;;;;;;10.73;100.00;100208.59;5093633;28;20043;-68
2020/12/15 00:28:06;;;;;;;15.60;2.42;;;;;;;10.73;100.00;100212.13;5093498;28;20042;-69
2020/12/15 00:30:31;;;;;;;17.33;2.45;;;;;;;10.74;100.00;100210.22;5093530;28;20036;-68
2020/12/15 00:32:57;;;;;;;18.95;3.60;;;;;;;10.74;100.00;100204.75;5093394;28;20068;-67
2020/12/15 00:35:22;;;;;;;16.13;2.67;;;;;;;10.76;100.00;100216.25;5093627;28;20108;-67
2020/12/15 00:37:48;;;;;;;17.92;3.05;;;;;;;10.80;100.00;100207.31;5093279;28;20028;-67
2020/12/15 00:40:14;;;;;;;22.92;3.85;;;;;;;10.83;100.00;100205.97;5092170;28;20063;-70
2020/12/15 00:42:39;;;;;;;18.27;2.28;;;;;;;10.85;100.00;100209.25;5093208;28;20048;-67
2020/12/15 00:45:05;;;;;;;25.55;3.08;;;;;;;10.85;100.00;100214.72;5093317;28;20046;-68
2020/12/15 00:47:30;;;;;;;22.65;2.63;;;;;;;10.86;100.00;100213.63;5093136;28;20055;-67
2020/12/15 00:49:56;;;;;;;17.67;2.47;;;;;;;10.86;100.00;100213.63;5093080;28;20079;-71
2020/12/15 00:52:26;;;;;;;23.08;3.47;;;;;;;10.87;100.00;100210.63;5093306;28;20039;-70
2020/12/15 00:54:52;;;;;;;23.45;2.03;;;;;;;10.88;100.00;100217.75;5093139;28;20043;-71
2020/12/15 00:57:18;;;;;;;22.48;2.92;;;;;;;10.88;100.00;100211.47;5092833;28;20032;-70
2020/12/15 00:59:44;;;;;;;22.38;2.42;;;;;;;10.87;100.00;100213.38;5093022;28;20043;-68
2020/12/15 01:02:10;;;;;;;16.85;2.42;;;;;;;10.85;100.00;100203.78;5093324;28;20040;-69
2020/12/15 01:04:36;;;;;;;12.65;2.65;;;;;;;10.84;100.00;100202.16;5092752;28;20127;-67
2020/12/15 01:07:01;;;;;;;27.98;4.20;;;;;;;10.85;100.00;100217.44;5092813;28;20052;-69
2020/12/15 01:09:27;;;;;;;19.02;2.95;;;;;;;10.84;100.00;100211.16;5093089;28;20134;-69
2020/12/15 01:11:52;;;;;;;27.73;3.17;;;;;;;10.84;100.00;100218.53;5092721;28;20097;-70
2020/12/15 01:14:18;;;;;;;15.10;2.20;;;;;;;10.82;100.00;100217.97;5092687;28;20039;-68
2020/12/15 01:16:43;;;;;;;14.55;2.10;;;;;;;10.82;100.00;100226.16;5092558;28;20059;-68
2020/12/15 01:19:09;;;;;;;20.90;2.67;;;;;;;10.84;100.00;100218.53;5092559;28;20504;-67
2020/12/15 01:21:35;;;;;;;18.50;3.20;;;;;;;10.87;100.00;100220.75;5092539;28;20028;-67
2020/12/15 01:24:01;;;;;;;20.85;2.80;;;;;;;10.90;100.00;100216.66;5092493;28;20398;-68
2020/12/15 01:26:26;;;;;;;34.03;4.13;;;;;;;10.91;100.00;100216.41;5092684;28;20032;-68
2020/12/15 01:28:52;;;;;;;17.50;2.70;;;;;;;10.92;100.00;100226.25;5092359;28;20040;-68
2020/12/15 01:31:28;;;;;;;24.45;3.13;;;;;;;10.90;100.00;100224.84;5092354;28;20066;-70
2020/12/15 01:33:54;;;;;;;15.10;2.15;;;;;;;10.89;100.00;100224.03;5092263;28;20042;-70
2020/12/15 01:36:46;;;;;;;29.55;2.92;;;;;;;10.87;100.00;100227.03;5092213;28;20123;-68
2020/12/15 01:39:12;;;;;;;16.42;2.20;;;;;;;10.87;100.00;100237.13;5089017;28;20044;-68
2020/12/15 01:41:37;;;;;;;23.70;3.13;;;;;;;10.86;100.00;100224.56;5092114;28;20101;-69
2020/12/15 01:44:04;;;;;;;15.57;2.72;;;;;;;10.86;100.00;100232.75;5092240;28;20458;-67
2020/12/15 01:46:32;;;;;;;20.10;3.08;;;;;;;10.88;100.00;100233.31;5091801;28;20048;-68
2020/12/15 01:48:58;;;;;;;23.67;2.50;;;;;;;10.89;100.00;100224.03;5091926;28;20047;-69
2020/12/15 01:51:28;;;;;;;21.77;2.88;;;;;;;10.90;100.00;100220.22;5091486;28;20035;-69
2020/12/15 01:53:58;;;;;;;18.90;3.33;;;;;;;10.92;100.00;100233.63;5092057;28;20032;-68
2020/12/15 01:56:24;;;;;;;18.83;2.83;;;;;;;10.94;100.00;100231.47;5091879;28;20043;-68
2020/12/15 01:58:54;;;;;;;21.65;3.50;;;;;;;10.94;100.00;100235.03;5091722;28;20457;-68
2020/12/15 02:01:20;;;;;;;24.05;4.13;;;;;;;10.97;100.00;100231.78;5092030;28;20024;-70
2020/12/15 02:03:45;;;;;;;32.58;3.15;;;;;;;10.99;100.00;100237.81;5091726;28;20035;-67
2020/12/15 02:06:11;;;;;;;21.27;3.05;;;;;;;10.99;100.00;100234.25;5091744;28;20040;-68
2020/12/15 02:08:37;;;;;;;21.27;2.63;;;;;;;10.96;100.00;100230.13;5091480;28;20040;-68
2020/12/15 02:11:03;;;;;;;21.33;2.65;;;;;;;10.94;100.00;100237.75;5091503;28;20252;-69
2020/12/15 02:13:30;;;;;;;18.92;1.75;;;;;;;10.92;100.00;100239.91;5091491;28;20039;-68
2020/12/15 02:15:55;;;;;;;13.80;1.58;;;;;;;10.91;100.00;100235.53;5091637;28;20043;-67
2020/12/15 02:18:21;;;;;;;15.07;2.17;;;;;;;10.94;100.00;100242.41;5091550;28;20386;-68
2020/12/15 02:20:47;;;;;;;18.20;1.75;;;;;;;10.94;100.00;100226.84;5091424;28;20035;-67
2020/12/15 02:23:12;;;;;;;19.38;2.60;;;;;;;10.95;100.00;100244.06;5091365;28;20093;-67
2020/12/15 02:25:38;;;;;;;14.00;1.98;;;;;;;10.94;100.00;100242.41;5091428;28;20524;-68
2020/12/15 02:28:05;;;;;;;20.75;2.85;;;;;;;10.94;100.00;100243.22;5091195;28;20509;-70
2020/12/15 02:30:30;;;;;;;20.63;2.08;;;;;;;10.94;100.00;100258.81;5091304;28;20032;-68
2020/12/15 02:32:56;;;;;;;20.67;3.47;;;;;;;10.93;100.00;100255.22;5091546;28;20393;-69
2020/12/15 02:35:22;;;;;;;12.05;2.58;;;;;;;10.91;100.00;100260.13;5091420;28;20065;-68
2020/12/15 02:37:47;;;;;;;22.60;2.28;;;;;;;10.88;100.00;100260.63;5091115;28;20032;-67
2020/12/15 02:40:13;;;;;;;19.55;2.42;;;;;;;10.88;100.00;100263.38;5091131;28;20495;-67
2020/12/15 02:42:39;;;;;;;20.60;2.08;;;;;;;10.85;100.00;100266.63;5091063;28;20174;-69
2020/12/15 02:45:05;;;;;;;14.48;2.08;;;;;;;10.83;100.00;100268.78;5091090;28;20039;-69
2020/12/15 02:47:30;;;;;;;14.65;2.17;;;;;;;10.81;100.00;100271.78;5090903;28;20567;-68
2020/12/15 02:49:56;;;;;;;20.10;2.15;;;;;;;10.82;100.00;100278.06;5091487;28;20805;-67
2020/12/15 02:52:22;;;;;;;17.75;2.08;;;;;;;10.80;100.00;100270.13;5091190;28;20382;-66
2020/12/15 02:54:48;;;;;;;13.77;2.33;;;;;;;10.80;100.00;100259.22;5091012;28;20032;-69
2020/12/15 02:57:15;;;;;;;16.20;1.83;;;;;;;10.79;100.00;100264.94;5090871;28;20044;-67
2020/12/15 02:59:41;;;;;;;20.63;2.35;;;;;;;10.77;100.00;100267.09;5090997;28;20032;-68
2020/12/15 03:02:07;;;;;;;13.55;2.70;;;;;;;10.78;100.00;100266.84;5091126;28;20027;-67
2020/12/15 03:04:33;;;;;;;11.73;1.70;;;;;;;10.77;100.00;100267.91;5094176;28;20580;-67
2020/12/15 03:07:04;;;;;;;28.23;3.97;;;;;;;10.80;100.00;100277.50;5095237;28;20036;-67
2020/12/15 03:09:30;;;;;;;16.73;2.15;;;;;;;10.82;100.00;100278.91;5095066;28;20394;-68
2020/12/15 03:11:57;;;;;;;15.52;2.60;;;;;;;10.84;100.00;100270.44;5094910;28;20041;-68
2020/12/15 03:14:24;;;;;;;11.93;1.75;;;;;;;10.85;100.00;100283.00;5095005;28;20185;-69
2020/12/15 03:16:49;;;;;;;11.85;2.13;;;;;;;10.85;100.00;100272.09;5094883;28;20040;-68
2020/12/15 03:19:15;;;;;;;17.80;2.45;;;;;;;10.84;100.00;100282.19;5094806;28;20134;-67
2020/12/15 03:21:40;;;;;;;18.00;2.05;;;;;;;10.85;100.00;100280.28;5094788;28;20090;-68
2020/12/15 03:24:06;;;;;;;14.05;2.55;;;;;;;10.85;100.00;100283.00;5094951;28;20036;-67
2020/12/15 03:26:32;;;;;;;20.73;2.38;;;;;;;10.88;100.00;100280.59;5094758;28;20126;-66
2020/12/15 03:28:57;;;;;;;12.18;2.45;;;;;;;10.91;100.00;100284.69;5094724;28;20112;-67
2020/12/15 03:31:23;;;;;;;16.27;2.30;;;;;;;10.90;100.00;100274.03;5094595;28;20047;-68
2020/12/15 03:33:49;;;;;;;16.20;2.25;;;;;;;10.90;100.00;100284.97;5094540;28;20074;-67
2020/12/15 03:36:18;;;;;;;23.52;3.00;;;;;;;10.91;100.00;100284.69;5094619;28;20032;-68
2020/12/15 03:38:44;;;;;;;15.93;2.50;;;;;;;10.91;100.00;100281.16;5094475;28;20476;-69
2020/12/15 03:41:10;;;;;;;7.55;1.08;;;;;;;10.85;100.00;100288.47;5094796;28;20036;-67
2020/12/15 03:43:35;;;;;;;12.60;1.55;;;;;;;10.81;100.00;100281.88;5094472;28;20044;-67
2020/12/15 03:46:02;;;;;;;10.93;1.27;;;;;;;10.76;100.00;100279.06;5092880;28;20104;-68
2020/12/15 03:48:27;;;;;;;10.10;1.10;;;;;;;10.73;100.00;100283.16;5094225;28;20066;-66
2020/12/15 03:50:54;;;;;;;5.35;1.35;;;;;;;10.69;100.00;100276.56;5094351;28;20476;-70
2020/12/15 03:53:20;;;;;;;9.80;1.60;;;;;;;10.67;100.00;100283.38;5094006;28;20127;-69
2020/12/15 03:55:47;;;;;;;11.80;1.52;;;;;;;10.64;100.00;100283.88;5094195;28;20169;-68
2020/12/15 03:58:17;;;;;;;10.52;1.30;;;;;;;10.60;100.00;100286.31;5094482;28;20465;-67
2020/12/15 04:00:43;;;;;;;8.00;1.00;;;;;;;10.58;100.00;100278.34;5094213;28;20024;-70
2020/12/15 04:03:09;;;;;;;10.48;1.20;;;;;;;10.57;100.00;100275.88;5093965;28;20028;-69
2020/12/15 04:05:36;;;;;;;6.32;0.88;;;;;;;10.60;100.00;100285.47;5093967;28;20485;-68
2020/12/15 04:08:02;;;;;;;13.10;1.48;;;;;;;10.61;100.00;100293.41;5093768;28;20596;-67
2020/12/15 04:10:28;;;;;;;10.10;1.70;;;;;;;10.61;100.00;100287.13;5093845;28;20482;-69
2020/12/15 04:12:53;;;;;;;15.52;2.03;;;;;;;10.62;100.00;100300.53;5093730;28;20047;-69
2020/12/15 04:15:19;;;;;;;15.63;2.58;;;;;;;10.62;100.00;100294.25;5093609;28;20047;-69
2020/12/15 04:17:44;;;;;;;17.98;1.55;;;;;;;10.60;100.00;100297.22;5093838;28;20064;-69
2020/12/15 04:20:11;;;;;;;10.40;1.58;;;;;;;10.57;100.00;100305.91;5093773;28;20530;-68
2020/12/15 04:22:36;;;;;;;11.80;2.03;;;;;;;10.57;100.00;100303.19;5093603;28;20067;-68
2020/12/15 04:25:04;;;;;;;12.93;2.13;;;;;;;10.52;100.00;100301.22;5093846;28;20063;-67
2020/12/15 04:27:29;;;;;;;11.73;1.38;;;;;;;10.51;100.00;100299.56;5093502;28;20040;-69
2020/12/15 04:29:55;;;;;;;13.25;1.33;;;;;;;10.52;100.00;100301.22;5093720;28;20047;-70
2020/12/15 04:32:21;;;;;;;17.27;1.77;;;;;;;10.51;100.00;100299.56;5092273;28;20055;-69
2020/12/15 04:34:47;;;;;;;12.52;2.10;;;;;;;10.50;100.00;100308.84;5093535;28;20032;-68
2020/12/15 04:37:13;;;;;;;11.73;2.20;;;;;;;10.49;100.00;100307.19;5093289;28;20599;-67
2020/12/15 04:39:38;;;;;;;14.30;2.42;;;;;;;10.48;100.00;100311.00;5091915;28;20120;-68
2020/12/15 04:42:04;;;;;;;9.35;1.35;;;;;;;10.50;100.00;100314.31;5093253;28;20058;-67
2020/12/15 04:44:29;;;;;;;15.18;1.83;;;;;;;10.47;100.00;100317.56;5093481;28;20112;-67
2020/12/15 04:46:59;;;;;;;10.60;1.20;;;;;;;10.47;100.00;100323.00;5091799;28;20067;-67
2020/12/15 04:49:28;;;;;;;12.35;1.98;;;;;;;10.49;100.00;100323.59;5093312;28;20035;-68
2020/12/15 04:51:58;;;;;;;10.25;2.00;;;;;;;10.51;100.00;100324.16;5093031;28;20057;-69
2020/12/15 04:54:32;;;;;;;10.77;1.55;;;;;;;10.52;100.00;100334.00;5093073;28;20039;-67
2020/12/15 04:57:00;;;;;;;17.15;1.75;;;;;;;10.54;100.00;100326.38;5093259;28;20032;-68
2020/12/15 04:59:34;;;;;;;14.13;1.42;;;;;;;10.58;100.00;100332.13;5093051;28;20032;-69
2020/12/15 05:02:03;;;;;;;10.60;1.50;;;;;;;10.60;100.00;100323.72;5092990;28;20031;-68
2020/12/15 05:04:37;;;;;;;16.83;2.40;;;;;;;10.63;100.00;100325.94;5092990;28;20039;-67
2020/12/15 05:07:05;;;;;;;16.93;2.77;;;;;;;10.67;100.00;100330.63;5092901;28;20039;-68
2020/12/15 05:09:32;;;;;;;19.63;2.75;;;;;;;10.70;100.00;100321.09;5092701;28;20032;-68
2020/12/15 05:11:58;;;;;;;19.77;2.35;;;;;;;10.73;100.00;100329.59;5092542;28;20044;-66
2020/12/15 05:14:24;;;;;;;13.52;2.03;;;;;;;10.74;100.00;100331.25;5092570;28;20046;-67
2020/12/15 05:16:53;;;;;;;19.88;2.55;;;;;;;10.76;100.00;100328.25;5092982;28;20051;-69
2020/12/15 05:19:19;;;;;;;20.88;2.00;;;;;;;10.76;100.00;100341.91;5092571;28;20120;-68
2020/12/15 05:21:57;;;;;;;20.25;2.25;;;;;;;10.77;100.00;100332.66;5092920;28;20109;-68
2020/12/15 05:24:28;;;;;;;13.27;1.75;;;;;;;10.78;100.00;100337.03;5092600;28;20046;-69
2020/12/15 05:26:58;;;;;;;12.23;1.55;;;;;;;10.77;100.00;100341.69;5090376;28;20429;-67
2020/12/15 05:29:24;;;;;;;18.88;2.40;;;;;;;10.76;100.00;100344.63;5092293;28;20044;-68
2020/12/15 05:31:51;;;;;;;15.63;2.17;;;;;;;10.77;100.00;100349.03;5092231;28;20039;-68
2020/12/15 05:34:25;;;;;;;10.32;1.30;;;;;;;10.76;100.00;100352.81;5092291;28;20477;-68
2020/12/15 05:36:55;;;;;;;14.95;1.88;;;;;;;10.78;100.00;100345.22;5092476;28;20039;-68
2020/12/15 05:39:22;;;;;;;17.88;2.28;;;;;;;10.76;100.00;100344.63;5092267;28;20447;-67
2020/12/15 05:42:05;;;;;;;13.95;1.88;;;;;;;10.73;100.00;100339.69;5092126;28;20493;-68
2020/12/15 05:44:33;;;;;;;13.15;2.53;;;;;;;10.74;100.00;100336.69;5092102;28;20036;-67
2020/12/15 05:47:00;;;;;;;17.92;2.35;;;;;;;10.74;100.00;100341.34;5092075;28;20406;-69
2020/12/15 05:49:27;;;;;;;18.27;1.88;;;;;;;10.76;100.00;100355.56;5091935;28;20477;-67
2020/12/15 05:51:53;;;;;;;17.58;2.30;;;;;;;10.78;100.00;100350.69;5091812;28;20043;-69
2020/12/15 05:54:19;;;;;;;13.80;3.63;;;;;;;10.77;100.00;100346.31;5091974;28;20032;-68
2020/12/15 05:56:45;;;;;;;13.55;2.47;;;;;;;10.77;100.00;100352.59;5091911;28;20109;-67
2020/12/15 05:59:18;;;;;;;26.73;2.67;;;;;;;10.77;100.00;100346.31;5091761;28;20119;-68
2020/12/15 06:01:46;;;;;;;15.63;2.28;;;;;;;10.76;100.00;100350.97;5091776;28;20040;-69
2020/12/15 06:04:12;;;;;;;17.00;1.70;;;;;;;10.77;100.00;100347.13;5091733;28;20085;-68
2020/12/15 06:06:39;;;;;;;18.90;2.20;;;;;;;10.79;100.00;100346.88;5091600;28;20043;-68
2020/12/15 06:09:08;;;;;;;15.02;2.15;;;;;;;10.79;100.00;100352.34;5091646;28;20039;-68
2020/12/15 06:11:38;;;;;;;14.40;2.75;;;;;;;10.77;100.00;100351.78;5091540;28;20043;-69
2020/12/15 06:14:04;;;;;;;18.45;2.03;;;;;;;10.78;100.00;100350.69;5090377;28;20135;-68
2020/12/15 06:16:29;;;;;;;14.95;2.45;;;;;;;10.79;100.00;100344.16;5091571;28;20123;-68
2020/12/15 06:18:55;;;;;;;17.17;2.50;;;;;;;10.81;100.00;100352.91;5091327;28;20370;-67
2020/12/15 06:21:22;;;;;;;14.90;2.33;;;;;;;10.83;100.00;100357.03;5091384;28;20036;-68
2020/12/15 06:23:57;;;;;;;15.48;2.22;;;;;;;10.85;100.00;100359.50;5091365;28;20093;-68
2020/12/15 06:26:25;;;;;;;24.77;2.03;;;;;;;10.87;100.00;100347.25;5091557;28;20032;-67
2020/12/15 06:29:06;;;;;;;20.52;2.85;;;;;;;10.90;100.00;100356.00;5091297;28;20047;-66
2020/12/15 06:31:35;;;;;;;18.02;2.47;;;;;;;10.91;100.00;100355.75;5091374;28;20036;-67
2020/12/15 06:34:02;;;;;;;17.98;2.63;;;;;;;10.92;100.00;100364.75;5091129;28;20036;-68
2020/12/15 06:36:33;;;;;;;19.15;2.30;;;;;;;10.90;100.00;100365.03;5091134;28;20482;-67
2020/12/15 06:39:12;;;;;;;15.18;2.78;;;;;;;10.91;100.00;100347.53;5091100;28;20462;-67
2020/12/15 06:41:40;;;;;;;21.25;2.95;;;;;;;10.92;100.00;100356.56;5091225;28;20028;-69
2020/12/15 06:44:07;;;;;;;21.10;2.75;;;;;;;10.92;100.00;100364.75;5091197;28;20126;-67
2020/12/15 06:46:33;;;;;;;21.55;2.38;;;;;;;10.90;100.00;100362.28;5090962;28;20052;-68
2020/12/15 06:48:59;;;;;;;17.63;2.90;;;;;;;10.89;100.00;100366.09;5091021;28;20085;-67
2020/12/15 06:51:29;;;;;;;18.90;2.55;;;;;;;10.91;100.00;100368.56;5090916;28;20428;-67
2020/12/15 06:53:59;;;;;;;17.40;2.22;;;;;;;10.94;100.00;100379.84;5089673;28;20067;-67
2020/12/15 06:56:26;;;;;;;18.77;3.17;;;;;;;10.96;100.00;100372.22;5091052;28;20486;-68
2020/12/15 06:59:06;;;;;;;17.13;2.13;;;;;;;10.98;100.00;100380.97;5090922;28;20028;-69
2020/12/15 07:01:33;;;;;;;17.25;2.50;;;;;;;11.01;100.00;100380.47;5090991;28;20024;-68
2020/12/15 07:04:03;;;;;;;18.48;2.33;;;;;;;11.03;100.00;100375.56;5091046;28;20450;-68
2020/12/15 07:06:29;;;;;;;14.25;2.83;;;;;;;11.04;100.00;100385.41;5091243;28;20028;-68
2020/12/15 07:09:09;;;;;;;25.33;3.45;;;;;;;11.05;100.00;100391.69;5090755;28;20393;-68
2020/12/15 07:11:35;;;;;;;16.70;2.88;;;;;;;10.98;100.00;100385.63;5090733;28;20043;-67
2020/12/15 07:14:04;;;;;;;24.08;3.58;;;;;;;10.90;100.00;100378.69;5090867;28;20051;-68
2020/12/15 07:16:32;;;;;;;19.33;2.70;;;;;;;10.83;100.00;100372.59;5090893;28;20040;-68
2020/12/15 07:18:58;;;;;;;21.05;2.83;;;;;;;10.78;100.00;100380.75;5090893;28;20159;-68
2020/12/15 07:21:28;;;;;;;12.63;1.90;;;;;;;10.73;100.00;100380.66;5090861;28;20047;-68
2020/12/15 07:23:59;;;;;;;19.08;3.33;;;;;;;10.69;100.00;100415.84;5090718;28;20047;-68
2020/12/15 07:26:25;;;;;;;13.80;2.10;;;;;;;10.49;100.00;100421.06;5090770;28;20036;-67
2020/12/15 07:28:52;;;;;;;12.43;1.35;;;;;;;10.29;100.00;100397.03;5090559;28;20064;-67
2020/12/15 07:31:29;;;;;;;13.50;1.52;;;;;;;10.13;100.00;100397.84;5090641;28;20490;-68
2020/12/15 07:34:16;;;;;;;16.48;1.60;;;;;;;10.10;100.00;100406.53;5090785;28;20093;-66
2020/12/15 07:36:47;;;;;;;16.52;2.35;;;;;;;10.09;100.00;100399.44;5090720;28;20466;-69
2020/12/15 07:39:13;;;;;;;19.52;2.53;;;;;;;10.05;100.00;100393.63;5090600;28;20131;-68
2020/12/15 07:41:40;;;;;;;15.07;1.48;;;;;;;10.09;100.00;100393.97;5090564;28;20089;-67
2020/12/15 07:44:12;;;;;;;21.83;2.58;;;;;;;10.14;100.00;100396.75;5090536;28;20039;-68
2020/12/15 07:46:44;;;;;;;23.50;3.13;;;;;;;10.19;100.00;100405.00;5090248;28;20108;-67
2020/12/15 07:49:09;;;;;;;24.30;3.50;;;;;;;10.25;100.00;100404.06;5091354;28;20455;-68
2020/12/15 07:51:38;;;;;;;21.02;2.17;;;;;;;10.32;100.00;100407.44;5094510;28;20064;-68
2020/12/15 07:54:04;;;;;;;26.42;3.20;;;;;;;10.42;100.00;100410.31;5094317;28;20060;-69
2020/12/15 07:56:31;;;;;;;23.67;3.50;;;;;;;10.49;100.00;100419.16;5094206;28;20032;-67
2020/12/15 07:58:58;;;;;;;16.38;2.30;;;;;;;10.53;100.00;100406.63;5094072;28;20478;-67
2020/12/15 08:01:26;;;;;;;15.82;1.83;;;;;;;10.57;100.00;100412.41;5094080;28;20046;-68
2020/12/15 08:04:09;;;;;;;22.20;2.40;;;;;;;10.62;100.00;100417.97;5094185;28;20036;-68
2020/12/15 08:06:46;;;;;;;24.08;2.58;;;;;;;10.65;100.00;100424.81;5094260;28;20486;-68
2020/12/15 08:09:14;;;;;;;25.88;3.30;;;;;;;10.64;100.00;100434.09;5094245;28;20501;-68
2020/12/15 08:11:45;;;;;;;21.75;2.53;;;;;;;10.64;100.00;100429.44;5094063;28;20495;-68
2020/12/15 08:14:15;;;;;;;13.02;2.35;;;;;;;10.66;100.00;100431.94;5094044;28;20043;-68
2020/12/15 08:16:42;;;;;;;30.60;3.28;;;;;;;10.70;100.00;100433.06;5093939;28;20028;-68
2020/12/15 08:19:09;;;;;;;20.25;3.38;;;;;;;10.73;100.00;100443.47;5093844;28;20494;-67
2020/12/15 08:21:41;;;;;;;17.48;2.42;;;;;;;10.77;100.00;100441.91;5093857;28;20036;-68
2020/12/15 08:24:11;;;;;;;22.20;2.78;;;;;;;10.76;100.00;100442.97;5093702;28;20123;-68
2020/12/15 08:26:38;;;;;;;20.35;2.45;;;;;;;10.80;100.00;100455.06;5093653;28;20032;-67
2020/12/15 08:29:10;;;;;;;16.73;2.05;;;;;;;10.80;100.00;100449.59;5093551;28;20131;-70
2020/12/15 08:31:40;;;;;;;21.02;3.30;;;;;;;10.84;100.00;100450.75;5093524;28;20040;-67
2020/12/15 08:34:24;;;;;;;18.50;2.63;;;;;;;10.84;100.00;100446.09;5093542;28;20397;-70
2020/12/15 08:36:53;;;;;;;11.65;2.13;;;;;;;10.88;100.00;100468.28;5093502;28;20047;-68
2020/12/15 08:39:23;;;;;;;19.63;3.08;;;;;;;10.91;100.00;100467.75;5093001;28;20443;-67
2020/12/15 08:41:51;;;;;;;11.77;2.00;;;;;;;10.92;100.00;100447.56;5091702;28;20031;-69
2020/12/15 08:44:18;;;;;;;12.00;2.00;;;;;;;10.93;100.00;100475.69;5092760;28;20036;-67
2020/12/15 08:46:44;;;;;;;15.13;2.72;;;;;;;10.96;100.00;100475.22;5092175;28;20143;-68
2020/12/15 08:49:14;;;;;;;23.48;2.42;;;;;;;10.97;100.00;100477.69;5092702;28;20027;-68
2020/12/15 08:51:42;;;;;;;18.90;3.03;;;;;;;10.96;100.00;100481.50;5092668;28;20141;-68
2020/12/15 08:54:08;;;;;;;20.15;2.67;;;;;;;10.99;100.00;100481.00;5093034;28;20036;-68
2020/12/15 08:56:34;;;;;;;22.25;2.78;;;;;;;11.01;100.00;100481.56;5092107;28;20044;-69
2020/12/15 08:59:15;;;;;;;12.27;1.80;;;;;;;11.00;100.00;100488.13;5093264;28;20064;-68
2020/12/15 09:01:42;;;;;;;21.83;3.28;;;;;;;11.01;100.00;100500.69;5091820;28;20032;-68
2020/12/15 09:04:09;;;;;;;19.52;2.75;;;;;;;11.04;100.00;100494.72;5091796;28;20052;-68
2020/12/15 09:06:37;;;;;;;17.75;2.00;;;;;;;11.04;100.00;100500.19;5092711;28;20043;-69
2020/12/15 09:09:04;;;;;;;24.92;3.33;;;;;;;11.08;100.00;100500.50;5092466;28;20528;-69
2020/12/15 09:11:30;;;;;;;16.85;2.78;;;;;;;11.09;100.00;100496.69;5092483;28;20040;-68
2020/12/15 09:14:00;;;;;;;21.90;2.85;;;;;;;11.10;100.00;100503.81;5090552;28;20514;-69
2020/12/15 09:16:28;;;;;;;22.42;2.80;;;;;;;11.12;100.00;100502.50;5092327;28;20131;-68
2020/12/15 09:18:54;;;;;;;12.68;1.80;;;;;;;11.08;100.00;100517.72;5091786;28;20497;-66
2020/12/15 09:21:20;;;;;;;23.13;3.70;;;;;;;11.08;100.00;100503.22;5092328;28;20035;-64
2020/12/15 09:23:53;;;;;;;22.38;3.38;;;;;;;11.06;100.00;100519.06;5092446;28;20027;-64
2020/12/15 09:26:22;;;;;;;19.88;2.45;;;;;;;11.06;100.00;100514.41;5092226;28;20139;-65
2020/12/15 09:28:49;;;;;;;19.50;2.50;;;;;;;11.09;100.00;100511.16;5091864;28;20028;-72
2020/12/15 09:31:17;;;;;;;16.92;3.30;;;;;;;11.14;100.00;100527.66;5092017;28;20031;-66
2020/12/15 09:33:43;;;;;;;18.38;2.65;;;;;;;11.18;100.00;100523.34;5092140;28;20075;-67
2020/12/15 09:36:12;;;;;;;17.92;3.00;;;;;;;11.24;100.00;100526.13;5092024;28;20046;-67
2020/12/15 09:38:37;;;;;;;17.48;2.25;;;;;;;11.29;100.00;100534.41;5091757;28;20118;-66
2020/12/15 09:41:03;;;;;;;20.13;2.22;;;;;;;11.36;100.00;100526.81;5091985;28;20127;-67
2020/12/15 09:43:28;;;;;;;22.15;2.63;;;;;;;11.40;100.00;100547.94;5091518;28;20031;-68
2020/12/15 09:45:54;;;;;;;21.60;3.40;;;;;;;11.44;100.00;100529.09;5091732;28;20052;-67
2020/12/15 09:48:20;;;;;;;13.93;1.90;;;;;;;11.42;100.00;100539.47;5091464;28;20044;-71
2020/12/15 09:50:46;;;;;;;9.77;1.50;;;;;;;11.38;100.00;100522.75;5091571;28;20042;-66
2020/12/15 09:53:11;;;;;;;13.15;2.33;;;;;;;11.40;100.00;100514.28;5091744;28;20081;-64
2020/12/15 09:55:37;;;;;;;14.50;2.30;;;;;;;11.42;100.00;100544.94;5090550;28;20024;-69
2020/12/15 09:58:03;;;;;;;15.07;1.63;;;;;;;11.46;100.00;100541.47;5090656;28;20036;-68
2020/12/15 10:00:28;;;;;;;23.90;2.85;;;;;;;11.48;100.00;100550.22;5091595;28;20488;-69
2020/12/15 10:02:54;;;;;;;15.40;2.10;;;;;;;11.50;100.00;100547.25;5091287;28;20036;-68
2020/12/15 10:05:19;;;;;;;13.05;2.97;;;;;;;11.55;100.00;100563.69;5091578;28;20043;-67
2020/12/15 10:07:45;;;;;;;14.20;2.30;;;;;;;11.60;100.00;100541.88;5091320;28;20461;-68
2020/12/15 10:10:11;;;;;;;13.57;1.63;;;;;;;11.70;100.00;100550.19;5091471;28;20122;-67
2020/12/15 10:12:36;;;;;;;15.05;2.30;;;;;;;11.67;100.00;100563.56;5090760;28;20398;-67
2020/12/15 10:15:02;;;;;;;20.75;3.08;;;;;;;11.66;100.00;100568.22;5091470;28;20093;-71
2020/12/15 10:17:28;;;;;;;15.73;1.90;;;;;;;11.59;100.00;100570.31;5090232;28;20040;-68
2020/12/15 10:19:54;;;;;;;13.57;1.60;;;;;;;11.49;100.00;100572.94;5091225;28;20040;-69
2020/12/15 10:22:19;;;;;;;13.93;2.03;;;;;;;11.39;100.00;100583.72;5091498;28;20036;-68
2020/12/15 10:24:45;;;;;;;16.08;1.88;;;;;;;11.31;100.00;100597.84;5091164;28;20066;-68
2020/12/15 10:27:11;;;;;;;16.30;2.05;;;;;;;11.19;100.00;100597.97;5091094;28;20047;-70
2020/12/15 10:29:37;;;;;;;18.27;3.50;;;;;;;11.05;100.00;100594.75;5091233;28;20068;-70
2020/12/15 10:32:03;;;;;;;14.55;2.05;;;;;;;10.85;100.00;100605.38;5091185;28;20085;-71
2020/12/15 10:34:29;;;;;;;12.02;0.93;;;;;;;10.74;100.00;100603.56;5091193;28;20470;-67
2020/12/15 10:36:56;;;;;;;13.32;1.88;;;;;;;10.68;100.00;100589.00;5091138;28;20032;-69
2020/12/15 10:39:22;;;;;;;11.15;1.55;;;;;;;10.68;100.00;100599.09;5091199;28;20122;-68
2020/12/15 10:41:47;;;;;;;11.90;1.85;;;;;;;10.71;100.00;100576.75;5090984;28;20114;-68
2020/12/15 10:44:14;;;;;;;7.95;1.17;;;;;;;10.68;100.00;100582.72;5090953;28;20036;-69
2020/12/15 10:46:44;;;;;;;6.30;0.85;;;;;;;10.68;100.00;100590.91;5090705;28;20048;-68
2020/12/15 10:49:10;;;;;;;9.90;1.23;;;;;;;10.69;100.00;100592.56;5090863;28;20032;-69
2020/12/15 10:51:37;;;;;;;10.52;1.92;;;;;;;10.81;100.00;100593.31;5090993;28;20393;-68
2020/12/15 10:54:06;;;;;;;8.48;1.48;;;;;;;10.92;100.00;100594.28;5091024;28;20035;-68
2020/12/15 10:56:32;;;;;;;8.95;0.80;;;;;;;11.04;100.00;100598.56;5090800;28;20036;-68
2020/12/15 10:58:59;;;;;;;10.00;1.15;;;;;;;11.16;100.00;100582.06;5090958;28;20040;-70
2020/12/15 11:01:26;;;;;;;13.05;1.40;;;;;;;11.28;100.00;100592.88;5090866;28;20036;-70
2020/12/15 11:03:53;;;;;;;19.13;1.88;;;;;;;11.37;100.00;100596.84;5090656;28;20458;-71
2020/12/15 11:06:23;;;;;;;14.18;1.80;;;;;;;11.43;100.00;100601.28;5090917;28;20028;-69
2020/12/15 11:08:48;;;;;;;11.07;1.42;;;;;;;11.50;100.00;100591.00;5090990;28;20055;-69
2020/12/15 11:11:14;;;;;;;11.07;1.27;;;;;;;11.51;100.00;100592.66;5090652;28;20086;-68